Monday, April 24, 2017, 10:46 PM EDT
Back to Local

KMPO, Mt Pocono Pocono Mountains

Location: Pocono Summit, PA, United States Lat: 41.133
Local Time: 10:46 PM EDT ( 2:46 GMT) Lon: -75.383
Time Zone: US/Eastern Elev: 1915 ft

Show me the last for .
Show Decoded

2017-04-24 21:53 METAR KMPO 250153Z AUTO 11008KT 10SM -RA BKN080 OVC100 11/02 A3010 RMK AO2 RAB50
                 SLP197 P0000 T01060017 =
2017-04-24 20:53 METAR KMPO 250053Z AUTO 11008KT 10SM OVC090 11/01 A3010 RMK AO2 RAE01 SLP197
                 P0000 T01110011 =
2017-04-24 19:53 METAR KMPO 242353Z AUTO 11007KT 10SM -RA OVC070 12/00 A3010 RMK AO2 RAB36 SLP198
                 P0000 60000 T01220000 10150 20122 55002 =
2017-04-24 18:53 METAR KMPO 242253Z AUTO 10009KT 10SM CLR 13/01 A3010 RMK AO2 SLP201 T01330006 =
2017-04-24 17:53 METAR KMPO 242153Z AUTO 13009KT 10SM OVC080 14/M01 A3010 RMK AO2 SLP201
                 T01391011 =
2017-04-24 16:53 METAR KMPO 242053Z AUTO 12009KT 10SM OVC090 14/02 A3011 RMK AO2 SLP202 T01440017
                 58008 =
2017-04-24 15:53 METAR KMPO 241953Z AUTO 12009KT 10SM OVC095 14/04 A3012 RMK AO2 SLP207 T01440044
                 =
2017-04-24 14:53 METAR KMPO 241853Z AUTO 11009KT 10SM OVC095 14/02 A3013 RMK AO2 SLP212 T01440022
                 =
2017-04-24 13:53 METAR KMPO 241753Z AUTO 09007KT 10SM OVC100 14/03 A3013 RMK AO2 SLP211 T01440028
                 10144 20083 56002 =
2017-04-24 12:53 METAR KMPO 241653Z AUTO 11007KT 10SM OVC110 14/02 A3014 RMK AO2 SLP211 T01440017
                 =
2017-04-24 11:53 METAR KMPO 241553Z AUTO 09008KT 10SM OVC110 14/02 A3014 RMK AO2 SLP211 T01390022
                 =
2017-04-24 10:53 METAR KMPO 241453Z AUTO 10006KT 10SM SCT120 13/02 A3014 RMK AO2 SLP212 T01330022
                 51006 =
2017-04-24 09:53 METAR KMPO 241353Z AUTO 10005KT 10SM CLR 12/03 A3014 RMK AO2 SLP211 T01220033 =
2017-04-24 08:53 METAR KMPO 241253Z AUTO 00000KT 10SM CLR 11/05 A3014 RMK AO2 SLP211 T01060050 =
2017-04-24 07:53 METAR KMPO 241153Z AUTO 00000KT 10SM CLR 08/06 A3012 RMK AO2 SLP204 T00830061
                 10083 20006 51011 =
2017-04-24 06:53 METAR KMPO 241053Z AUTO 00000KT 10SM CLR 03/02 A3012 RMK AO2 SLP206 T00330022 =
2017-04-24 05:53 METAR KMPO 240953Z AUTO 35004KT 10SM CLR 03/02 A3009 RMK AO2 SLP196 T00280022 =
2017-04-24 04:53 METAR KMPO 240853Z AUTO 34005KT 10SM CLR 04/02 A3009 RMK AO2 SLP193 T00390022
                 53000 =
2017-04-24 03:53 METAR KMPO 240753Z AUTO 33003KT 10SM CLR 02/02 A3009 RMK AO2 SLP194 T00220017 =
2017-04-24 02:53 METAR KMPO 240653Z AUTO 30005KT 10SM CLR 02/02 A3008 RMK AO2 SLP191 T00220017 =
2017-04-24 01:53 METAR KMPO 240553Z AUTO 30003KT 10SM CLR 03/02 A3009 RMK AO2 SLP194 T00280017
                 10117 20022 58003 =
2017-04-24 00:53 METAR KMPO 240453Z AUTO 00000KT 10SM CLR 04/02 A3010 RMK AO2 SLP197 T00390022
                 401780006 =
2017-04-23 23:53 METAR KMPO 240353Z AUTO 00000KT 10SM CLR 05/02 A3010 RMK AO2 SLP200 T00500022 =
2017-04-23 22:53 METAR KMPO 240253Z AUTO 00000KT 10SM CLR 06/02 A3010 RMK AO2 SLP198 T00610017
                 50006 =

Support USWX by starting your Amazon purchase here.